sensor_id;sensor_type;location;lat;lon;timestamp;pressure;altitude;pressure_sealevel;temperature;humidity
75767;BME280;64378;55.596;13.014;2023-03-03T00:00:56;102164.97;;;20.57;34.85
75767;BME280;64378;55.596;13.014;2023-03-03T00:03:24;102162.03;;;20.59;34.92
75767;BME280;64378;55.596;13.014;2023-03-03T00:05:50;102159.50;;;20.57;34.91
75767;BME280;64378;55.596;13.014;2023-03-03T00:08:18;102162.84;;;20.59;35.24
75767;BME280;64378;55.596;13.014;2023-03-03T00:10:44;102153.78;;;20.59;35.02
75767;BME280;64378;55.596;13.014;2023-03-03T00:13:16;102141.16;;;20.58;35.20
75767;BME280;64378;55.596;13.014;2023-03-03T00:15:42;102150.81;;;20.60;35.12
75767;BME280;64378;55.596;13.014;2023-03-03T00:18:30;102141.75;;;20.60;35.21
75767;BME280;64378;55.596;13.014;2023-03-03T00:20:59;102150.19;;;20.58;34.91
75767;BME280;64378;55.596;13.014;2023-03-03T00:23:38;102154.63;;;20.59;34.90
75767;BME280;64378;55.596;13.014;2023-03-03T00:26:32;102147.25;;;20.60;34.95
75767;BME280;64378;55.596;13.014;2023-03-03T00:28:59;102149.13;;;20.59;35.24
75767;BME280;64378;55.596;13.014;2023-03-03T00:31:31;102156.53;;;20.59;35.09
75767;BME280;64378;55.596;13.014;2023-03-03T00:34:09;102161.16;;;20.58;35.06
75767;BME280;64378;55.596;13.014;2023-03-03T00:36:46;102171.53;;;20.56;34.88
75767;BME280;64378;55.596;13.014;2023-03-03T00:39:27;102160.56;;;20.56;34.93
75767;BME280;64378;55.596;13.014;2023-03-03T00:41:55;102176.81;;;20.58;34.95
75767;BME280;64378;55.596;13.014;2023-03-03T00:50:15;102160.56;;;20.56;34.83
75767;BME280;64378;55.596;13.014;2023-03-03T00:52:52;102157.00;;;20.56;34.83
75767;BME280;64378;55.596;13.014;2023-03-03T00:55:22;102159.97;;;20.54;35.01
75767;BME280;64378;55.596;13.014;2023-03-03T00:57:47;102159.97;;;20.54;35.00
75767;BME280;64378;55.596;13.014;2023-03-03T01:00:13;102165.22;;;20.56;34.85
75767;BME280;64378;55.596;13.014;2023-03-03T01:02:38;102178.94;;;20.56;34.79
75767;BME280;64378;55.596;13.014;2023-03-03T01:05:04;102167.38;;;20.54;34.94
75767;BME280;64378;55.596;13.014;2023-03-03T01:07:29;102181.69;;;20.56;34.80
75767;BME280;64378;55.596;13.014;2023-03-03T01:09:55;102172.00;;;20.53;34.90
75767;BME280;64378;55.596;13.014;2023-03-03T01:12:20;102166.28;;;20.55;34.63
75767;BME280;64378;55.596;13.014;2023-03-03T01:14:46;102171.53;;;20.56;34.55
75767;BME280;64378;55.596;13.014;2023-03-03T01:17:13;102158.66;;;20.57;34.91
75767;BME280;64378;55.596;13.014;2023-03-03T01:19:38;102160.56;;;20.56;34.75
75767;BME280;64378;55.596;13.014;2023-03-03T01:22:04;102156.16;;;20.55;34.71
75767;BME280;64378;55.596;13.014;2023-03-03T01:24:29;102156.41;;;20.54;34.68
75767;BME280;64378;55.596;13.014;2023-03-03T01:26:54;102157.00;;;20.56;34.62
75767;BME280;64378;55.596;13.014;2023-03-03T01:29:20;102153.41;;;20.55;34.99
75767;BME280;64378;55.596;13.014;2023-03-03T01:31:45;102160.81;;;20.55;34.80
75767;BME280;64378;55.596;13.014;2023-03-03T01:34:11;102154.47;;;20.54;34.81
75767;BME280;64378;55.596;13.014;2023-03-03T01:36:36;102139.34;;;20.52;34.55
75767;BME280;64378;55.596;13.014;2023-03-03T01:39:02;102138.28;;;20.53;34.74
75767;BME280;64378;55.596;13.014;2023-03-03T01:41:31;102130.03;;;20.53;34.83
75767;BME280;64378;55.596;13.014;2023-03-03T01:43:58;102120.16;;;20.52;34.59
75767;BME280;64378;55.596;13.014;2023-03-03T01:48:52;102104.28;;;20.54;34.69
75767;BME280;64378;55.596;13.014;2023-03-03T01:51:30;102110.84;;;20.53;34.72
75767;BME280;64378;55.596;13.014;2023-03-03T01:53:59;102112.16;;;20.50;34.67
75767;BME280;64378;55.596;13.014;2023-03-03T01:56:25;102111.66;;;20.53;35.00
75767;BME280;64378;55.596;13.014;2023-03-03T01:58:57;102114.41;;;20.53;34.77
75767;BME280;64378;55.596;13.014;2023-03-03T02:01:26;102109.78;;;20.54;34.81
75767;BME280;64378;55.596;13.014;2023-03-03T02:03:53;102104.28;;;20.54;34.98
75767;BME280;64378;55.596;13.014;2023-03-03T02:06:23;102110.00;;;20.52;34.88
75767;BME280;64378;55.596;13.014;2023-03-03T02:09:26;102106.19;;;20.53;35.11
75767;BME280;64378;55.596;13.014;2023-03-03T02:11:46;102108.09;;;20.53;34.95
75767;BME280;64378;55.596;13.014;2023-03-03T02:14:14;102101.78;;;20.52;34.63
75767;BME280;64378;55.596;13.014;2023-03-03T02:16:40;102098.66;;;20.49;34.89
75767;BME280;64378;55.596;13.014;2023-03-03T02:19:15;102102.03;;;20.51;35.09
75767;BME280;64378;55.596;13.014;2023-03-03T02:21:42;102106.69;;;20.50;35.07
75767;BME280;64378;55.596;13.014;2023-03-03T02:26:45;102103.94;;;20.50;35.13
75767;BME280;64378;55.596;13.014;2023-03-03T02:29:10;102102.88;;;20.51;34.92
75767;BME280;64378;55.596;13.014;2023-03-03T02:31:36;102094.66;;;20.51;35.11
75767;BME280;64378;55.596;13.014;2023-03-03T02:34:02;102100.13;;;20.51;35.10
75767;BME280;64378;55.596;13.014;2023-03-03T02:36:31;102089.16;;;20.51;35.06
75767;BME280;64378;55.596;13.014;2023-03-03T02:42:18;102083.88;;;20.50;35.02
75767;BME280;64378;55.596;13.014;2023-03-03T02:44:45;102088.78;;;20.48;34.99
75767;BME280;64378;55.596;13.014;2023-03-03T02:47:10;102102.47;;;20.48;34.80
75767;BME280;64378;55.596;13.014;2023-03-03T02:49:36;102090.44;;;20.49;34.89
75767;BME280;64378;55.596;13.014;2023-03-03T02:52:04;102091.28;;;20.49;35.02
75767;BME280;64378;55.596;13.014;2023-03-03T02:54:31;102073.16;;;20.48;35.19
75767;BME280;64378;55.596;13.014;2023-03-03T02:56:57;102066.84;;;20.48;35.07
75767;BME280;64378;55.596;13.014;2023-03-03T02:59:23;102081.41;;;20.48;35.03
75767;BME280;64378;55.596;13.014;2023-03-03T03:01:52;102070.91;;;20.45;35.07
75767;BME280;64378;55.596;13.014;2023-03-03T03:04:22;102068.75;;;20.47;35.21
75767;BME280;64378;55.596;13.014;2023-03-03T03:06:49;102067.91;;;20.47;34.96
75767;BME280;64378;55.596;13.014;2023-03-03T03:09:15;102068.75;;;20.47;35.12
75767;BME280;64378;55.596;13.014;2023-03-03T03:11:41;102072.56;;;20.46;35.08
75767;BME280;64378;55.596;13.014;2023-03-03T03:14:08;102072.56;;;20.46;35.00
75767;BME280;64378;55.596;13.014;2023-03-03T03:16:34;102078.06;;;20.46;35.15
75767;BME280;64378;55.596;13.014;2023-03-03T03:19:00;102071.50;;;20.47;35.08
75767;BME280;64378;55.596;13.014;2023-03-03T03:21:27;102061.00;;;20.44;35.16
75767;BME280;64378;55.596;13.014;2023-03-03T03:23:52;102055.53;;;20.44;35.04
75767;BME280;64378;55.596;13.014;2023-03-03T03:26:18;102073.38;;;20.47;35.09
75767;BME280;64378;55.596;13.014;2023-03-03T03:28:45;102073.38;;;20.47;34.92
75767;BME280;64378;55.596;13.014;2023-03-03T03:31:11;102073.38;;;20.47;35.09
75767;BME280;64378;55.596;13.014;2023-03-03T03:33:37;102077.19;;;20.46;35.08
75767;BME280;64378;55.596;13.014;2023-03-03T03:36:02;102069.84;;;20.46;35.03
75767;BME280;64378;55.596;13.014;2023-03-03T03:38:29;102071.72;;;20.46;35.12
75767;BME280;64378;55.596;13.014;2023-03-03T03:40:55;102076.38;;;20.45;35.27
75767;BME280;64378;55.596;13.014;2023-03-03T03:43:21;102067.09;;;20.46;35.22
75767;BME280;64378;55.596;13.014;2023-03-03T03:45:46;102066.22;;;20.46;35.21
75767;BME280;64378;55.596;13.014;2023-03-03T03:48:12;102076.38;;;20.45;35.21
75767;BME280;64378;55.596;13.014;2023-03-03T03:50:38;102059.94;;;20.45;35.18
75767;BME280;64378;55.596;13.014;2023-03-03T03:53:05;102065.41;;;20.45;35.08
75767;BME280;64378;55.596;13.014;2023-03-03T03:55:31;102066.22;;;20.46;35.24
75767;BME280;64378;55.596;13.014;2023-03-03T03:57:57;102058.00;;;20.46;35.27
75767;BME280;64378;55.596;13.014;2023-03-03T04:00:22;102059.94;;;20.45;35.22
75767;BME280;64378;55.596;13.014;2023-03-03T04:02:49;102055.28;;;20.46;34.89
75767;BME280;64378;55.596;13.014;2023-03-03T04:05:14;102057.19;;;20.45;35.07
75767;BME280;64378;55.596;13.014;2023-03-03T04:07:40;102064.56;;;20.45;35.13
75767;BME280;64378;55.596;13.014;2023-03-03T04:10:06;102053.00;;;20.43;35.25
75767;BME280;64378;55.596;13.014;2023-03-03T04:12:31;102059.06;;;20.45;35.34
75767;BME280;64378;55.596;13.014;2023-03-03T04:15:07;102064.56;;;20.45;35.05
75767;BME280;64378;55.596;13.014;2023-03-03T04:17:33;102061.22;;;20.43;35.11
75767;BME280;64378;55.596;13.014;2023-03-03T04:19:59;102059.53;;;20.42;35.30
75767;BME280;64378;55.596;13.014;2023-03-03T04:22:25;102060.16;;;20.44;35.36
75767;BME280;64378;55.596;13.014;2023-03-03T04:24:50;102060.16;;;20.44;35.20
75767;BME280;64378;55.596;13.014;2023-03-03T04:27:15;102054.06;;;20.42;35.15
75767;BME280;64378;55.596;13.014;2023-03-03T04:29:41;102055.97;;;20.41;35.13
75767;BME280;64378;55.596;13.014;2023-03-03T04:32:07;102058.47;;;20.43;35.15
75767;BME280;64378;55.596;13.014;2023-03-03T04:34:32;102053.25;;;20.41;35.13
75767;BME280;64378;55.596;13.014;2023-03-03T04:36:58;102042.50;;;20.40;35.26
75767;BME280;64378;55.596;13.014;2023-03-03T04:39:23;102041.69;;;20.39;35.10
75767;BME280;64378;55.596;13.014;2023-03-03T04:41:49;102050.50;;;20.41;35.27
75767;BME280;64378;55.596;13.014;2023-03-03T04:44:15;102042.75;;;20.38;35.07
75767;BME280;64378;55.596;13.014;2023-03-03T04:46:40;102044.16;;;20.41;35.08
75767;BME280;64378;55.596;13.014;2023-03-03T04:49:06;102043.34;;;20.40;35.16
75767;BME280;64378;55.596;13.014;2023-03-03T04:51:33;102049.06;;;20.39;35.31
75767;BME280;64378;55.596;13.014;2023-03-03T04:53:58;102040.25;;;20.37;35.12
75767;BME280;64378;55.596;13.014;2023-03-03T04:56:24;102046.09;;;20.40;35.53
75767;BME280;64378;55.596;13.014;2023-03-03T04:58:49;102031.53;;;20.40;35.26
75767;BME280;64378;55.596;13.014;2023-03-03T05:01:14;102030.72;;;20.39;35.39
75767;BME280;64378;55.596;13.014;2023-03-03T05:03:40;102032.63;;;20.39;35.55
75767;BME280;64378;55.596;13.014;2023-03-03T05:06:06;102034.28;;;20.40;35.21
75767;BME280;64378;55.596;13.014;2023-03-03T05:08:32;102038.94;;;20.39;35.54
75767;BME280;64378;55.596;13.014;2023-03-03T05:10:57;102033.69;;;20.38;35.47
75767;BME280;64378;55.596;13.014;2023-03-03T05:13:24;102038.69;;;20.41;35.31
75767;BME280;64378;55.596;13.014;2023-03-03T05:15:52;102027.97;;;20.39;35.44
75767;BME280;64378;55.596;13.014;2023-03-03T05:18:20;102028.78;;;20.40;35.34
75767;BME280;64378;55.596;13.014;2023-03-03T05:20:47;102028.78;;;20.40;35.44
75767;BME280;64378;55.596;13.014;2023-03-03T05:23:12;102036.19;;;20.39;35.36
75767;BME280;64378;55.596;13.014;2023-03-03T05:25:39;102028.44;;;20.36;35.41
75767;BME280;64378;55.596;13.014;2023-03-03T05:28:05;102029.88;;;20.39;35.61
75767;BME280;64378;55.596;13.014;2023-03-03T05:30:31;102034.28;;;20.40;35.42
75767;BME280;64378;55.596;13.014;2023-03-03T05:32:56;102035.13;;;20.40;35.43
75767;BME280;64378;55.596;13.014;2023-03-03T05:35:24;102029.63;;;20.40;35.48
75767;BME280;64378;55.596;13.014;2023-03-03T05:37:49;102019.75;;;20.39;35.54
75767;BME280;64378;55.596;13.014;2023-03-03T05:40:15;102014.25;;;20.39;35.68
75767;BME280;64378;55.596;13.014;2023-03-03T05:42:40;102009.03;;;20.38;35.63
75767;BME280;64378;55.596;13.014;2023-03-03T05:45:06;102010.09;;;20.37;35.54
75767;BME280;64378;55.596;13.014;2023-03-03T05:47:32;102022.94;;;20.36;35.34
75767;BME280;64378;55.596;13.014;2023-03-03T05:49:57;102029.88;;;20.39;35.58
75767;BME280;64378;55.596;13.014;2023-03-03T05:52:23;102030.97;;;20.38;35.41
75767;BME280;64378;55.596;13.014;2023-03-03T05:54:49;102026.53;;;20.37;35.44
75767;BME280;64378;55.596;13.014;2023-03-03T05:57:14;102036.44;;;20.38;35.32
75767;BME280;64378;55.596;13.014;2023-03-03T05:59:40;102029.75;;;20.34;35.32
75767;BME280;64378;55.596;13.014;2023-03-03T06:02:05;102038.78;;;20.34;35.34
75767;BME280;64378;55.596;13.014;2023-03-03T06:04:31;102017.94;;;20.33;35.56
75767;BME280;64378;55.596;13.014;2023-03-03T06:06:56;102016.03;;;20.34;35.20
75767;BME280;64378;55.596;13.014;2023-03-03T06:09:21;102022.59;;;20.33;35.36
75767;BME280;64378;55.596;13.014;2023-03-03T06:11:47;102026.16;;;20.33;35.31
75767;BME280;64378;55.596;13.014;2023-03-03T06:14:12;102031.88;;;20.32;35.14
75767;BME280;64378;55.596;13.014;2023-03-03T06:16:38;102044.53;;;20.33;35.47
75767;BME280;64378;55.596;13.014;2023-03-03T06:19:03;102035.44;;;20.32;35.11
75767;BME280;64378;55.596;13.014;2023-03-03T06:21:29;102040.94;;;20.32;35.36
75767;BME280;64378;55.596;13.014;2023-03-03T06:23:54;102040.13;;;20.32;35.24
75767;BME280;64378;55.596;13.014;2023-03-03T06:26:20;102040.13;;;20.32;35.26
75767;BME280;64378;55.596;13.014;2023-03-03T06:28:45;102042.00;;;20.31;35.31
75767;BME280;64378;55.596;13.014;2023-03-03T06:31:11;102042.59;;;20.33;35.29
75767;BME280;64378;55.596;13.014;2023-03-03T06:33:36;102046.19;;;20.34;35.28
75767;BME280;64378;55.596;13.014;2023-03-03T06:36:02;102047.47;;;20.31;35.27
75767;BME280;64378;55.596;13.014;2023-03-03T06:38:28;102044.53;;;20.33;34.91
75767;BME280;64378;55.596;13.014;2023-03-03T06:40:53;102041.19;;;20.31;35.21
75767;BME280;64378;55.596;13.014;2023-03-03T06:43:19;102041.19;;;20.31;35.09
75767;BME280;64378;55.596;13.014;2023-03-03T06:45:45;102054.03;;;20.30;35.18
75767;BME280;64378;55.596;13.014;2023-03-03T06:48:11;102056.31;;;20.33;35.18
75767;BME280;64378;55.596;13.014;2023-03-03T06:50:36;102046.19;;;20.34;35.23
75767;BME280;64378;55.596;13.014;2023-03-03T06:53:11;102052.75;;;20.33;35.11
75767;BME280;64378;55.596;13.014;2023-03-03T06:55:37;102042.59;;;20.33;35.25
75767;BME280;64378;55.596;13.014;2023-03-03T07:00:43;102040.72;;;20.34;35.16
75767;BME280;64378;55.596;13.014;2023-03-03T07:03:14;102050.81;;;20.33;35.20
75767;BME280;64378;55.596;13.014;2023-03-03T07:05:40;102048.69;;;20.35;35.32
75767;BME280;64378;55.596;13.014;2023-03-03T07:08:13;102044.28;;;20.34;35.17
75767;BME280;64378;55.596;13.014;2023-03-03T07:10:39;102059.44;;;20.37;35.10
75767;BME280;64378;55.596;13.014;2023-03-03T07:13:22;102052.88;;;20.38;35.10
75767;BME280;64378;55.596;13.014;2023-03-03T07:15:50;102047.41;;;20.38;35.28
75767;BME280;64378;55.596;13.014;2023-03-03T07:19:13;102062.19;;;20.37;35.20
75767;BME280;64378;55.596;13.014;2023-03-03T07:21:20;102051.81;;;20.39;35.02
75767;BME280;64378;55.596;13.014;2023-03-03T07:23:49;102045.22;;;20.40;35.16
75767;BME280;64378;55.596;13.014;2023-03-03T07:26:18;102056.19;;;20.40;34.89
75767;BME280;64378;55.596;13.014;2023-03-03T07:28:53;102057.31;;;20.39;34.99
75767;BME280;64378;55.596;13.014;2023-03-03T07:31:29;102055.38;;;20.39;35.10
75767;BME280;64378;55.596;13.014;2023-03-03T07:33:56;102053.47;;;20.40;35.23
75767;BME280;64378;55.596;13.014;2023-03-03T07:36:28;102057.41;;;20.44;35.37
75767;BME280;64378;55.596;13.014;2023-03-03T07:38:57;102051.69;;;20.45;35.31
75767;BME280;64378;55.596;13.014;2023-03-03T07:41:23;102052.31;;;20.47;35.32
75767;BME280;64378;55.596;13.014;2023-03-03T07:43:54;102045.75;;;20.48;35.33
75767;BME280;64378;55.596;13.014;2023-03-03T07:46:27;102046.34;;;20.50;35.34
75767;BME280;64378;55.596;13.014;2023-03-03T07:48:54;102049.66;;;20.52;35.18
75767;BME280;64378;55.596;13.014;2023-03-03T07:51:37;102042.91;;;20.55;35.36
75767;BME280;64378;55.596;13.014;2023-03-03T07:54:29;102047.53;;;20.54;34.93
75767;BME280;64378;55.596;13.014;2023-03-03T07:57:06;102051.72;;;20.57;35.39
75767;BME280;64378;55.596;13.014;2023-03-03T07:59:37;102067.72;;;20.60;35.41
75767;BME280;64378;55.596;13.014;2023-03-03T08:02:59;102066.03;;;20.59;35.10
75767;BME280;64378;55.596;13.014;2023-03-03T08:04:59;102061.16;;;20.61;35.30
75767;BME280;64378;55.596;13.014;2023-03-03T08:07:25;102058.63;;;20.59;35.29
75767;BME280;64378;55.596;13.014;2023-03-03T08:10:01;102062.81;;;20.62;35.17
75767;BME280;64378;55.596;13.014;2023-03-03T08:12:27;102065.31;;;20.63;35.33
75767;BME280;64378;55.596;13.014;2023-03-03T08:14:57;102067.25;;;20.63;35.37
75767;BME280;64378;55.596;13.014;2023-03-03T08:17:34;102068.91;;;20.64;35.20
75767;BME280;64378;55.596;13.014;2023-03-03T08:20:53;102069.47;;;20.66;35.13
75767;BME280;64378;55.596;13.014;2023-03-03T08:22:52;102067.81;;;20.65;35.14
75767;BME280;64378;55.596;13.014;2023-03-03T08:25:17;102064.84;;;20.66;35.35
75767;BME280;64378;55.596;13.014;2023-03-03T08:27:43;102066.75;;;20.66;34.94
75767;BME280;64378;55.596;13.014;2023-03-03T08:30:09;102062.31;;;20.65;35.03
75767;BME280;64378;55.596;13.014;2023-03-03T08:32:34;102065.66;;;20.67;34.85
75767;BME280;64378;55.596;13.014;2023-03-03T08:35:00;102057.94;;;20.64;34.88
75767;BME280;64378;55.596;13.014;2023-03-03T08:37:25;102054.94;;;20.65;34.83
75767;BME280;64378;55.596;13.014;2023-03-03T08:39:50;102053.88;;;20.66;34.90
75767;BME280;64378;55.596;13.014;2023-03-03T08:42:16;102049.22;;;20.67;35.02
75767;BME280;64378;55.596;13.014;2023-03-03T08:44:42;102050.06;;;20.67;34.87
75767;BME280;64378;55.596;13.014;2023-03-03T08:47:08;102037.66;;;20.65;34.86
75767;BME280;64378;55.596;13.014;2023-03-03T08:49:33;102049.22;;;20.67;34.72
75767;BME280;64378;55.596;13.014;2023-03-03T08:51:59;102051.50;;;20.70;34.96
75767;BME280;64378;55.596;13.014;2023-03-03T08:54:25;102041.38;;;20.70;34.87
75767;BME280;64378;55.596;13.014;2023-03-03T08:56:50;102048.75;;;20.70;35.10
75767;BME280;64378;55.596;13.014;2023-03-03T08:59:16;102036.34;;;20.67;34.87
75767;BME280;64378;55.596;13.014;2023-03-03T09:01:41;102045.78;;;20.71;34.66
75767;BME280;64378;55.596;13.014;2023-03-03T09:04:09;102044.72;;;20.72;34.47
75767;BME280;64378;55.596;13.014;2023-03-03T09:06:34;102045.53;;;20.73;34.58
75767;BME280;64378;55.596;13.014;2023-03-03T09:09:00;102045.53;;;20.73;34.73
75767;BME280;64378;55.596;13.014;2023-03-03T09:11:27;102038.16;;;20.73;34.66
75767;BME280;64378;55.596;13.014;2023-03-03T09:14:10;102033.50;;;20.73;34.53
75767;BME280;64378;55.596;13.014;2023-03-03T09:16:43;102031.81;;;20.73;34.72
75767;BME280;64378;55.596;13.014;2023-03-03T09:19:26;102030.75;;;20.73;34.41
75767;BME280;64378;55.596;13.014;2023-03-03T09:21:53;102034.34;;;20.74;34.51
75767;BME280;64378;55.596;13.014;2023-03-03T09:24:27;102036.00;;;20.75;34.50
75767;BME280;64378;55.596;13.014;2023-03-03T09:26:53;102024.78;;;20.76;34.58
75767;BME280;64378;55.596;13.014;2023-03-03T09:29:25;102028.34;;;20.77;34.41
75767;BME280;64378;55.596;13.014;2023-03-03T09:31:59;102026.47;;;20.77;34.45
75767;BME280;64378;55.596;13.014;2023-03-03T09:37:01;102041.00;;;20.78;34.31
75767;BME280;64378;55.596;13.014;2023-03-03T09:39:39;102033.19;;;20.81;34.49
75767;BME280;64378;55.596;13.014;2023-03-03T09:45:36;102037.00;;;20.80;34.39
75767;BME280;64378;55.596;13.014;2023-03-03T09:48:41;102028.50;;;20.82;34.38
75767;BME280;64378;55.596;13.014;2023-03-03T09:54:17;102034.00;;;20.82;34.25
75767;BME280;64378;55.596;13.014;2023-03-03T09:59:43;102037.81;;;20.81;34.23
75767;BME280;64378;55.596;13.014;2023-03-03T10:05:42;102021.34;;;20.81;34.31
75767;BME280;64378;55.596;13.014;2023-03-03T10:16:48;102021.94;;;20.83;34.23
75767;BME280;64378;55.596;13.014;2023-03-03T10:22:51;102021.72;;;20.84;33.79
75767;BME280;64378;55.596;13.014;2023-03-03T10:33:25;102022.56;;;20.85;34.03
75767;BME280;64378;55.596;13.014;2023-03-03T10:39:09;102016.00;;;20.86;33.83
75767;BME280;64378;55.596;13.014;2023-03-03T10:47:51;101998.09;;;20.83;33.71
75767;BME280;64378;55.596;13.014;2023-03-03T10:52:53;102005.00;;;20.86;33.76
75767;BME280;64378;55.596;13.014;2023-03-03T11:03:50;101983.91;;;20.86;33.85
75767;BME280;64378;55.596;13.014;2023-03-03T11:12:38;101976.50;;;20.87;33.74
75767;BME280;64378;55.596;13.014;2023-03-03T11:15:32;101965.31;;;20.88;33.89
75767;BME280;64378;55.596;13.014;2023-03-03T11:18:23;101971.63;;;20.89;33.88
75767;BME280;64378;55.596;13.014;2023-03-03T11:23:49;101969.47;;;20.91;33.80
75767;BME280;64378;55.596;13.014;2023-03-03T11:29:38;101962.66;;;20.93;33.79
75767;BME280;64378;55.596;13.014;2023-03-03T11:35:08;101960.50;;;20.95;33.70
75767;BME280;64378;55.596;13.014;2023-03-03T11:40:28;101955.63;;;20.97;33.67
75767;BME280;64378;55.596;13.014;2023-03-03T11:45:52;101950.13;;;20.97;33.61
75767;BME280;64378;55.596;13.014;2023-03-03T11:51:02;101947.16;;;20.99;33.61
75767;BME280;64378;55.596;13.014;2023-03-03T11:56:39;101938.34;;;20.97;33.50
75767;BME280;64378;55.596;13.014;2023-03-03T12:11:00;101922.22;;;21.00;33.63
75767;BME280;64378;55.596;13.014;2023-03-03T12:13:49;101922.81;;;21.02;33.47
75767;BME280;64378;55.596;13.014;2023-03-03T12:19:32;101908.25;;;21.02;33.38
75767;BME280;64378;55.596;13.014;2023-03-03T12:22:10;101908.81;;;21.04;33.44
75767;BME280;64378;55.596;13.014;2023-03-03T12:30:12;101890.69;;;21.03;33.53
75767;BME280;64378;55.596;13.014;2023-03-03T12:33:26;101883.31;;;21.03;33.32
75767;BME280;64378;55.596;13.014;2023-03-03T12:40:57;101874.81;;;21.05;33.39
75767;BME280;64378;55.596;13.014;2023-03-03T12:46:11;101864.91;;;21.04;33.22
75767;BME280;64378;55.596;13.014;2023-03-03T12:48:42;101863.84;;;21.05;33.46
75767;BME280;64378;55.596;13.014;2023-03-03T12:51:33;101858.34;;;21.05;33.21
75767;BME280;64378;55.596;13.014;2023-03-03T12:54:28;101866.59;;;21.05;33.20
75767;BME280;64378;55.596;13.014;2023-03-03T12:57:08;101854.53;;;21.06;33.29
75767;BME280;64378;55.596;13.014;2023-03-03T13:02:55;101844.63;;;21.05;33.35
75767;BME280;64378;55.596;13.014;2023-03-03T13:05:32;101843.56;;;21.06;33.30
75767;BME280;64378;55.596;13.014;2023-03-03T13:20:02;101807.66;;;21.07;33.96
75767;BME280;64378;55.596;13.014;2023-03-03T13:31:11;101785.22;;;21.10;34.21
75767;BME280;64378;55.596;13.014;2023-03-03T13:33:43;101774.22;;;21.10;34.14
75767;BME280;64378;55.596;13.014;2023-03-03T13:36:15;101769.81;;;21.09;34.06
75767;BME280;64378;55.596;13.014;2023-03-03T13:38:48;101767.66;;;21.11;34.11
75767;BME280;64378;55.596;13.014;2023-03-03T13:41:36;101767.41;;;21.13;34.23
75767;BME280;64378;55.596;13.014;2023-03-03T13:44:15;101767.19;;;21.14;34.08
75767;BME280;64378;55.596;13.014;2023-03-03T13:50:02;101768.81;;;21.15;33.92
75767;BME280;64378;55.596;13.014;2023-03-03T13:55:35;101752.13;;;21.17;33.82
75767;BME280;64378;55.596;13.014;2023-03-03T13:58:42;101752.94;;;21.17;34.06
75767;BME280;64378;55.596;13.014;2023-03-03T14:01:18;101747.22;;;21.19;33.93
75767;BME280;64378;55.596;13.014;2023-03-03T14:03:59;101735.38;;;21.18;33.91
75767;BME280;64378;55.596;13.014;2023-03-03T14:06:27;101737.53;;;21.16;34.00
75767;BME280;64378;55.596;13.014;2023-03-03T14:09:11;101725.25;;;21.19;33.99
75767;BME280;64378;55.596;13.014;2023-03-03T14:11:51;101728.81;;;21.19;33.98
75767;BME280;64378;55.596;13.014;2023-03-03T14:17:13;101728.59;;;21.21;33.82
75767;BME280;64378;55.596;13.014;2023-03-03T14:19:47;101716.75;;;21.20;34.09
75767;BME280;64378;55.596;13.014;2023-03-03T14:22:25;101711.28;;;21.20;34.04
75767;BME280;64378;55.596;13.014;2023-03-03T14:25:05;101703.31;;;21.19;33.88
75767;BME280;64378;55.596;13.014;2023-03-03T14:27:57;101701.13;;;21.21;33.79
75767;BME280;64378;55.596;13.014;2023-03-03T14:38:23;101667.34;;;21.20;33.74
75767;BME280;64378;55.596;13.014;2023-03-03T14:41:03;101661.63;;;21.22;33.72
75767;BME280;64378;55.596;13.014;2023-03-03T14:43:38;101648.13;;;21.20;33.75
75767;BME280;64378;55.596;13.014;2023-03-03T14:48:54;101639.91;;;21.20;33.51
75767;BME280;64378;55.596;13.014;2023-03-03T14:54:20;101626.75;;;21.22;33.54
75767;BME280;64378;55.596;13.014;2023-03-03T14:57:10;101625.38;;;21.20;33.44
75767;BME280;64378;55.596;13.014;2023-03-03T14:59:36;101634.19;;;21.22;33.45
75767;BME280;64378;55.596;13.014;2023-03-03T15:04:41;101621.53;;;21.21;33.43
75767;BME280;64378;55.596;13.014;2023-03-03T15:07:36;101614.13;;;21.21;33.46
75767;BME280;64378;55.596;13.014;2023-03-03T15:10:05;101610.56;;;21.21;33.53
75767;BME280;64378;55.596;13.014;2023-03-03T15:20:36;101585.88;;;21.21;33.34
75767;BME280;64378;55.596;13.014;2023-03-03T15:25:56;101574.03;;;21.20;33.53
75767;BME280;64378;55.596;13.014;2023-03-03T15:30:57;101562.47;;;21.18;33.31
75767;BME280;64378;55.596;13.014;2023-03-03T15:33:40;101552.34;;;21.19;33.48
75767;BME280;64378;55.596;13.014;2023-03-03T15:36:22;101548.75;;;21.18;33.45
75767;BME280;64378;55.596;13.014;2023-03-03T15:39:34;101544.59;;;21.16;33.34
75767;BME280;64378;55.596;13.014;2023-03-03T15:42:04;101528.13;;;21.16;33.37
75767;BME280;64378;55.596;13.014;2023-03-03T15:45:03;101522.38;;;21.17;33.50
75767;BME280;64378;55.596;13.014;2023-03-03T15:47:43;101516.59;;;21.14;33.58
75767;BME280;64378;55.596;13.014;2023-03-03T15:50:34;101515.22;;;21.16;33.27
75767;BME280;64378;55.596;13.014;2023-03-03T15:53:07;101510.00;;;21.15;33.24
75767;BME280;64378;55.596;13.014;2023-03-03T16:03:41;101494.63;;;21.14;33.58
75767;BME280;64378;55.596;13.014;2023-03-03T16:06:29;101498.22;;;21.14;33.30
75767;BME280;64378;55.596;13.014;2023-03-03T16:14:53;101471.28;;;21.11;33.17
75767;BME280;64378;55.596;13.014;2023-03-03T16:17:40;101466.59;;;21.12;33.36
75767;BME280;64378;55.596;13.014;2023-03-03T16:28:18;101440.75;;;21.08;33.34
75767;BME280;64378;55.596;13.014;2023-03-03T16:30:57;101442.69;;;21.07;33.41